Flight Track Log - Related Links

Times and Time Zones

All times are in EDT time to prevent confusion due to time zone crossing. See the UAL5786 flight status page for this flight to view local times or setup timezone preferences in your user account.

Time Position Orientation Groundspeed Altitude Reporting Facility
EDT Latitude Longitude Course Direction KTS MPH feet Rate Location/Type
Tue 07:31:02 AM 42.9500 -71.4500 274° West 169 194 900  Level KA90
Tue 07:32:16 AM 43.0050 -71.4833 336° Northwest 191 220 3,200 2,178 Climbing Boston Center
Tue 07:33:17 AM 43.0389 -71.5567 302° West 205 236 5,800 2,118 Climbing Boston Center
Tue 07:34:00 AM 42.9500 -72.0087 270° West  Level FlightAware Approximate
Tue 07:34:15 AM 43.0581 -71.6247 291° West 216 249 7,400  Level Boston Center
Tue 07:35:00 AM 42.9501 -72.1539 270° West  Level FlightAware Approximate
Tue 07:35:15 AM 43.0881 -71.7264 292° West 252 290 8,800  Level Boston Center
Tue 07:36:00 AM 42.9538 -72.2990 274° West  Level FlightAware Approximate
Tue 07:36:16 AM 43.0989 -71.8203 279° West 281 323 10,300  Level Boston Center
Tue 07:37:16 AM 43.1039 -71.9567 273° West 317 365 11,100 958 Climbing Boston Center
Tue 07:38:15 AM 43.1083 -72.0761 273° West 349 402 12,200 1,261 Climbing Boston Center
Tue 07:39:15 AM 43.1131 -72.2239 273° West 354 407 13,600 1,190 Climbing Boston Center
Tue 07:40:16 AM 43.1172 -72.3492 273° West 365 420 14,600 1,109 Climbing Boston Center
Tue 07:41:14 AM 43.1194 -72.4883 271° West 365 420 15,800 1,210 Climbing Boston Center
Tue 07:42:15 AM 43.1256 -72.6419 273° West 365 420 17,000 1,082 Climbing Boston Center
Tue 07:43:16 AM 43.1292 -72.7842 272° West 365 420 18,000 958 Climbing Boston Center
Tue 07:44:14 AM 43.1331 -72.8981 273° West 365 420 18,900 1,068 Climbing Boston Center
Tue 07:45:14 AM 43.1364 -73.0717 272° West 372 428 20,100 1,082 Climbing Boston Center
Tue 07:46:16 AM 43.1397 -73.2197 272° West 384 442 21,100 885 Climbing Boston Center
Tue 07:47:16 AM 43.1431 -73.3364 272° West 384 442 21,900 1,017 Climbing Boston Center
Tue 07:48:14 AM 43.1417 -73.5042 269° West 390 449 23,100 1,169 Climbing Boston Center
Tue 07:49:14 AM 43.1461 -73.6636 272° West 390 449 24,200 1,041 Climbing Boston Center
Tue 07:50:15 AM 43.1467 -73.8117 270° West 390 449 25,200 984 Climbing Boston Center
Tue 07:51:16 AM 43.1489 -73.9597 271° West 385 443 26,200 984 Climbing Boston Center
Tue 07:52:17 AM 43.1489 -74.1050 270° West 385 443 27,200 1,017 Climbing Boston Center
Tue 07:53:14 AM 43.1531 -74.2531 272° West 385 443 28,200 1,068 Climbing Boston Center
Tue 07:54:15 AM 43.1547 -74.3953 271° West 385 443 29,300 1,041 Climbing Boston Center
Tue 07:55:15 AM 43.1564 -74.5433 271° West 385 443 30,300 893 Climbing Boston Center
Tue 07:56:16 AM 43.1581 -74.6717 271° West 385 443 31,100 893 Climbing Boston Center
Tue 07:57:16 AM 43.1592 -74.8167 271° West 385 443 32,100 1,000 Climbing Boston Center
Tue 07:58:16 AM 43.1583 -74.9619 270° West 385 443 33,100 950 Climbing Boston Center
Tue 07:59:16 AM 43.1592 -75.1044 271° West 385 443 34,000 458 Climbing Boston Center
Tue 08:00:14 AM 43.1575 -75.2553 269° West 390 449 34,000  Level Boston Center
Tue 08:01:14 AM 43.1619 -75.4147 272° West 403 464 34,000  Level Boston Center
Tue 08:02:16 AM 43.1617 -75.5772 270° West 423 487 34,000  Level Boston Center
Tue 08:03:16 AM 43.1614 -75.7394 270° West 423 487 34,000  Level Boston Center
Tue 08:04:14 AM 43.1628 -75.8989 271° West 423 487 34,000  Level Boston Center
Tue 08:05:15 AM 43.1622 -76.0556 270° West 423 487 34,000 149 Level Boston Center
Tue 08:06:15 AM 43.1611 -76.2147 270° West 418 481 34,300 491 Climbing Boston Center
Tue 08:07:54 AM 43.1375 -76.4717 263° West 405 466 35,300 264 Climbing Cleveland Center
Tue 08:08:54 AM 43.1264 -76.6289 265° West 412 474 35,000 -150 Descending Cleveland Center
Tue 08:09:54 AM 43.1092 -76.8008 262° West 418 481 35,000  Level Cleveland Center
Tue 08:10:54 AM 43.0953 -76.9553 263° West 418 481 35,000  Level Cleveland Center
Tue 08:11:54 AM 43.0811 -77.1067 263° West 418 481 35,000  Level Cleveland Center
Tue 08:12:54 AM 43.0689 -77.2608 264° West 408 470 35,000  Level Cleveland Center
Tue 08:13:54 AM 43.0525 -77.4122 262° West 408 470 35,000  Level Cleveland Center
Tue 08:14:54 AM 43.0397 -77.5636 263° West 408 470 35,000  Level Cleveland Center
Tue 08:15:54 AM 43.0250 -77.7178 263° West 408 470 35,000  Level Cleveland Center
Tue 08:16:54 AM 43.0097 -77.8575 262° West 408 470 35,000  Level Cleveland Center
Tue 08:17:54 AM 42.9944 -78.0114 262° West 408 470 35,000 50 Level Cleveland Center
Tue 08:18:54 AM 42.9789 -78.1653 262° West 408 470 35,100 450 Climbing Cleveland Center
Tue 08:19:54 AM 42.9778 -78.3131 269° West 403 464 35,900 450 Climbing Cleveland Center
Tue 08:20:54 AM 42.9806 -78.4578 272° West 390 449 36,000 50 Climbing Cleveland Center
Tue 08:21:54 AM 42.9831 -78.6053 271° West 385 443 36,000  Level Cleveland Center
Tue 08:22:54 AM 42.9856 -78.7525 271° West 385 443 36,000  Level Cleveland Center
Tue 08:23:54 AM 42.9897 -78.9000 272° West 385 443 36,000  Level Cleveland Center
Tue 08:24:31 AM 42.9833 -79.0000 265° West 390 449 36,000  Level Toronto Center
Tue 08:25:31 AM 42.9833 -79.1333 270° West 390 449 36,000  Level Toronto Center
Tue 08:26:31 AM 42.9833 -79.2833 270° West 390 449 36,000  Level Toronto Center
Tue 08:27:31 AM 42.9833 -79.4333 270° West 390 449 36,000  Level Toronto Center
Tue 08:28:31 AM 42.9833 -79.5833 270° West 400 460 36,000  Level Toronto Center
Tue 08:29:31 AM 42.9833 -79.7167 270° West 400 460 36,000  Level Toronto Center
Tue 08:30:31 AM 42.9833 -79.8833 270° West 400 460 36,000  Level Toronto Center
Tue 08:31:31 AM 43.0000 -80.0500 278° West 390 449 36,000  Level Toronto Center
Tue 08:32:31 AM 43.0000 -80.1833 270° West 390 449 36,000  Level Toronto Center
Tue 08:33:31 AM 43.0000 -80.3333 270° West 390 449 36,000  Level Toronto Center
Tue 08:34:31 AM 43.0000 -80.4833 270° West 390 449 36,000  Level Toronto Center
Tue 08:35:31 AM 43.0000 -80.6333 270° West 400 460 36,000  Level Toronto Center
Tue 08:36:31 AM 43.0000 -80.7667 270° West 390 449 36,000  Level Toronto Center
Tue 08:37:31 AM 42.9833 -80.9333 262° West 380 437 36,000  Level Toronto Center
Tue 08:38:31 AM 42.9833 -81.0667 270° West 380 437 36,000  Level Toronto Center
Tue 08:39:31 AM 42.9833 -81.2333 270° West 390 449 36,000  Level Toronto Center
Tue 08:40:31 AM 42.9833 -81.3667 270° West 390 449 36,000 -750 Level Toronto Center
Tue 08:41:31 AM 42.9833 -81.5167 270° West 380 437 34,500 -1,000 Descending Toronto Center
Tue 08:42:31 AM 43.0000 -81.6667 279° West 400 460 34,000 -250 Descending Toronto Center
Tue 08:43:31 AM 43.0000 -81.8167 270° West 400 460 34,000  Level Toronto Center
Tue 08:44:31 AM 42.9833 -81.9500 260° West 400 460 34,000  Level Toronto Center
Tue 08:45:31 AM 42.9833 -82.1167 270° West 400 460 34,000  Level Toronto Center
Tue 08:46:31 AM 42.9833 -82.2833 270° West 400 460 34,000  Level Toronto Center
Tue 08:47:31 AM 42.9833 -82.4167 270° West 400 460 34,000  Level Toronto Center
Tue 08:48:31 AM 42.9833 -82.5667 270° West 400 460 34,000  Level Toronto Center
Tue 08:49:18 AM 42.9867 -82.7061 272° West 406 467 34,000  Level Cleveland Center
Tue 08:50:18 AM 42.9836 -82.8622 269° West 406 467 34,000  Level Cleveland Center
Tue 08:51:18 AM 42.9806 -83.0125 268° West 406 467 34,000  Level Cleveland Center
Tue 08:52:18 AM 42.9794 -83.1656 269° West 401 461 34,000 -350 Level Cleveland Center
Tue 08:53:18 AM 42.9778 -83.3275 269° West 413 475 33,300 -850 Descending Cleveland Center
Tue 08:54:18 AM 42.9717 -83.4917 267° West 425 489 32,300 -650 Descending Cleveland Center
Tue 08:55:18 AM 42.9675 -83.6533 268° West 432 497 32,000 -150 Descending Cleveland Center
Tue 08:56:18 AM 42.9611 -83.8061 267° West 445 512 32,000  Level Cleveland Center
Tue 08:57:18 AM 42.9439 -83.9728 262° West 445 512 32,000  Level Cleveland Center
Tue 08:58:18 AM 42.9286 -84.1364 263° West 451 519 32,000  Level Cleveland Center
Tue 08:59:18 AM 42.9128 -84.3028 263° West 445 512 32,000  Level Cleveland Center
Tue 09:00:15 AM 42.8978 -84.4481 262° West 445 512 32,000  Level Chicago Center
Tue 09:01:17 AM 42.8808 -84.6161 262° West 449 517 32,000  Level Chicago Center
Tue 09:02:19 AM 42.8600 -84.8183 262° West 450 518 32,000  Level Chicago Center
Tue 09:03:21 AM 42.8422 -84.9861 262° West 449 517 32,000  Level Chicago Center
Tue 09:04:23 AM 42.8242 -85.1556 262° West 451 519 32,000 -1,161 Level Chicago Center
Tue 09:05:25 AM 42.8056 -85.3275 262° West 458 527 29,600 -2,226 Descending Chicago Center
Tue 09:06:27 AM 42.7856 -85.4997 261° West 460 529 27,400 -2,032 Descending Chicago Center
Tue 09:07:29 AM 42.7553 -85.6686 256° West 458 527 25,400 -1,742 Descending Chicago Center
Tue 09:08:31 AM 42.7256 -85.8381 257° West 458 527 23,800 -1,680 Descending Chicago Center
Tue 09:09:34 AM 42.6894 -86.0353 256° West 446 513 21,900 -1,584 Descending Chicago Center
Tue 09:10:36 AM 42.6608 -86.1925 256° West 430 495 20,500 -919 Descending Chicago Center
Tue 09:11:38 AM 42.6317 -86.3483 256° West 425 489 20,000 -290 Descending Chicago Center
Tue 09:12:40 AM 42.6031 -86.5019 256° West 421 484 19,900 -823 Descending Chicago Center
Tue 09:13:42 AM 42.5747 -86.6556 256° West 419 482 18,300 -1,645 Descending Chicago Center
Tue 09:14:44 AM 42.5433 -86.7961 253° West 396 456 16,500 -2,226 Descending Chicago Center
Tue 09:15:46 AM 42.4975 -86.9597 249° West 387 445 13,700 -2,419 Descending Chicago Center
Tue 09:16:48 AM 42.4639 -87.0850 250° West 359 413 11,500 -1,694 Descending Chicago Center
Tue 09:17:50 AM 42.4333 -87.1908 249° West 307 353 10,200 -1,161 Descending Chicago Center
Tue 09:18:52 AM 42.3683 -87.2267 202° Southwest 270 311 9,100 -581 Descending Chicago Center
Tue 09:19:54 AM 42.2950 -87.2525 195° South 263 303 9,000 -48 Descending Chicago Center
Tue 09:20:57 AM 42.2206 -87.2778 194° South 278 320 9,000 -288 Level Chicago Center
Tue 09:21:59 AM 42.1472 -87.2778 180° South 276 318 8,400 -1,113 Descending Chicago Center
Tue 09:23:01 AM 42.0544 -87.2675 175° South 277 319 6,700 -1,161 Descending Chicago Center
Tue 09:24:03 AM 41.9994 -87.3186 215° Southwest 278 320 6,000 -339 Descending Chicago Center
Tue 09:25:05 AM 41.9789 -87.4097 253° West 261 300 6,000  Level Chicago Center
Tue 09:26:07 AM 41.9839 -87.5097 274° West 269 310 6,000 -581 Level Chicago Center
Tue 09:27:09 AM 41.9839 -87.5983 270° West 252 290 4,800 -1,161 Descending Chicago Center
Tue 09:28:11 AM 41.9836 -87.6858 270° West 206 237 3,600 -1,065 Descending Chicago Center
Tue 09:29:13 AM 41.9833 -87.7547 270° West 197 227 2,600 -864 Descending Chicago Center
Tue 09:30:16 AM 41.9839 -87.8156 271° West 183 211 1,800 -629 Descending Chicago Center
Tue 09:31:17 AM 41.9853 -87.8608 272° West 149 171 1,300 -492 Descending Chicago Center

Login

Don't have an account? Register now (free) for customized features, flight alerts, and more!